Time;durP1;ratioP1;P1;durP2;ratioP2;P2;SDS_P1;SDS_P2;PMS_P1;PMS_P2;Temp;Humidity;BMP_temperature;BMP_pressure;BME280_temperature;BME280_humidity;BME280_pressure;Samples;Min_cycle;Max_cycle;Signal;HPM_P1;HPM_P2
2023/08/26 00:01:08;;;;;;;7.70;6.47;;;22.40;99.90;;;;;;5143807;28;20046;-73
2023/08/26 00:03:39;;;;;;;8.70;6.63;;;22.30;99.90;;;;;;5143856;28;20031;-72
2023/08/26 00:06:10;;;;;;;9.13;6.22;;;22.40;99.90;;;;;;5143853;28;20027;-73
2023/08/26 00:08:41;;;;;;;8.10;5.72;;;22.30;99.90;;;;;;5145083;28;20462;-71
2023/08/26 00:11:12;;;;;;;7.32;5.97;;;22.30;99.90;;;;;;5148226;28;20015;-72
2023/08/26 00:13:43;;;;;;;7.88;6.75;;;22.30;99.90;;;;;;5149373;28;20106;-72
2023/08/26 00:16:14;;;;;;;8.35;6.35;;;22.30;99.90;;;;;;5149235;28;20023;-71
2023/08/26 00:18:47;;;;;;;19.00;6.47;;;22.30;99.90;;;;;;5149206;28;20027;-73
2023/08/26 00:21:21;;;;;;;8.98;6.55;;;22.20;99.90;;;;;;5149104;28;20023;-71
2023/08/26 00:23:52;;;;;;;6.97;6.30;;;22.30;99.90;;;;;;5149116;28;20114;-73
2023/08/26 00:26:23;;;;;;;9.55;6.82;;;22.20;99.90;;;;;;5148885;28;20102;-72
2023/08/26 00:28:54;;;;;;;10.27;7.22;;;22.20;99.90;;;;;;5148915;28;20038;-71
2023/08/26 00:31:25;;;;;;;7.82;7.13;;;22.00;99.90;;;;;;5148806;28;20122;-71
2023/08/26 00:33:56;;;;;;;7.35;6.43;;;22.00;99.90;;;;;;5147509;28;20058;-71
2023/08/26 00:36:27;;;;;;;9.40;6.22;;;22.00;99.90;;;;;;5147539;28;20023;-72
2023/08/26 00:38:58;;;;;;;10.77;6.47;;;22.00;99.90;;;;;;5148795;28;20078;-71
2023/08/26 00:41:29;;;;;;;8.40;6.90;;;22.00;99.90;;;;;;5148780;28;20037;-71
2023/08/26 00:43:59;;;;;;;9.15;6.80;;;21.90;99.90;;;;;;5148729;28;20027;-74
2023/08/26 00:46:31;;;;;;;7.82;7.03;;;22.00;99.90;;;;;;5148662;28;20058;-71
2023/08/26 00:49:02;;;;;;;10.15;6.60;;;22.10;99.90;;;;;;5147996;28;20465;-72
2023/08/26 00:51:33;;;;;;;8.13;6.40;;;22.00;99.90;;;;;;5148172;28;20022;-72
2023/08/26 00:54:05;;;;;;;9.90;6.40;;;22.00;99.90;;;;;;5147052;28;20081;-71
2023/08/26 00:56:36;;;;;;;7.43;6.72;;;21.90;99.90;;;;;;5146902;28;20031;-72
2023/08/26 00:59:07;;;;;;;8.48;7.63;;;21.90;99.90;;;;;;5146910;28;20377;-71
2023/08/26 01:01:38;;;;;;;10.65;8.38;;;21.90;99.90;;;;;;5146840;28;20023;-71
2023/08/26 01:04:10;;;;;;;8.85;7.13;;;21.80;99.90;;;;;;5147017;28;20062;-71
2023/08/26 01:06:41;;;;;;;7.85;7.15;;;21.80;99.90;;;;;;5146793;28;20097;-72
2023/08/26 01:09:12;;;;;;;7.82;7.15;;;21.70;99.90;;;;;;5148029;28;20035;-72
2023/08/26 01:12:04;;;;;;;9.50;7.32;;;21.80;99.90;;;;;;5148211;28;20042;-72
2023/08/26 01:14:39;;;;;;;6.97;6.38;;;21.60;99.90;;;;;;5148039;28;20047;-71
2023/08/26 01:17:12;;;;;;;8.52;6.65;;;21.70;99.90;;;;;;5147905;28;20019;-71
2023/08/26 01:19:44;;;;;;;6.78;6.18;;;21.60;99.90;;;;;;5146633;28;20109;-71
2023/08/26 01:22:19;;;;;;;7.00;6.30;;;21.70;99.90;;;;;;5147833;28;20031;-71
2023/08/26 01:24:50;;;;;;;7.38;6.28;;;21.70;99.90;;;;;;5147980;28;20034;-71
2023/08/26 01:27:21;;;;;;;7.28;6.35;;;21.60;99.90;;;;;;5147835;28;20371;-71
2023/08/26 01:29:52;;;;;;;10.40;7.57;;;21.50;99.90;;;;;;5147700;28;20035;-70
2023/08/26 01:32:52;;;;;;;8.90;7.15;;;21.50;99.90;;;;;;5146297;28;20047;-71
2023/08/26 01:35:25;;;;;;;;;;;21.50;99.90;;;;;;5147163;28;20035;-71
2023/08/26 01:37:58;;;;;;;8.05;7.25;;;21.50;99.90;;;;;;5147999;28;19999;-72
2023/08/26 01:40:30;;;;;;;8.02;7.32;;;21.60;99.90;;;;;;5146392;28;20023;-71
2023/08/26 01:43:02;;;;;;;9.27;8.10;;;21.50;99.90;;;;;;5147691;28;20059;-71
2023/08/26 01:45:33;;;;;;;9.27;8.45;;;21.50;99.90;;;;;;5146889;28;20042;-70
2023/08/26 01:48:04;;;;;;;8.50;7.65;;;21.60;99.90;;;;;;5145822;28;20031;-72
2023/08/26 01:50:35;;;;;;;7.95;7.25;;;21.50;99.90;;;;;;5146015;28;20625;-71
2023/08/26 01:53:08;;;;;;;8.45;7.53;;;21.60;99.90;;;;;;5146122;28;20023;-71
2023/08/26 01:55:39;;;;;;;8.50;7.22;;;21.40;99.90;;;;;;5145866;28;20023;-71
2023/08/26 01:58:10;;;;;;;10.95;8.45;;;21.50;99.90;;;;;;5144680;28;20035;-72
2023/08/26 02:00:41;;;;;;;8.85;8.05;;;21.50;99.90;;;;;;5144560;28;20031;-72
2023/08/26 02:03:12;;;;;;;8.10;7.30;;;21.50;99.90;;;;;;5146037;28;20031;-71
2023/08/26 02:05:43;;;;;;;8.80;7.63;;;21.30;99.90;;;;;;5147153;28;20039;-71
2023/08/26 02:08:14;;;;;;;8.73;7.88;;;21.50;99.90;;;;;;5147060;28;20114;-71
2023/08/26 02:10:54;;;;;;;9.55;7.57;;;21.50;99.90;;;;;;5147075;28;20102;-72
2023/08/26 02:13:25;;;;;;;9.63;8.63;;;21.50;99.90;;;;;;5147074;28;20035;-73
2023/08/26 02:15:56;;;;;;;9.25;8.18;;;21.40;99.90;;;;;;5146833;28;20037;-71
2023/08/26 02:18:27;;;;;;;9.05;8.05;;;21.40;99.90;;;;;;5146828;28;20366;-72
2023/08/26 02:20:58;;;;;;;8.02;7.25;;;21.50;99.90;;;;;;5146995;28;20115;-72
2023/08/26 02:23:29;;;;;;;10.18;8.32;;;21.30;99.90;;;;;;5145548;28;20030;-71
2023/08/26 02:26:00;;;;;;;8.10;7.30;;;21.40;99.90;;;;;;5145456;28;20132;-71
2023/08/26 02:28:30;;;;;;;8.38;7.57;;;21.30;99.90;;;;;;5146581;28;20039;-72
2023/08/26 02:31:04;;;;;;;10.27;8.38;;;21.20;99.90;;;;;;5146129;28;20026;-71
2023/08/26 02:33:35;;;;;;;7.93;7.22;;;21.30;99.90;;;;;;5146312;28;20054;-71
2023/08/26 02:36:06;;;;;;;8.75;8.05;;;21.30;99.90;;;;;;5146466;28;20105;-71
2023/08/26 02:38:37;;;;;;;9.88;7.55;;;21.20;99.90;;;;;;5146217;28;20098;-71
2023/08/26 02:41:08;;;;;;;9.73;8.77;;;21.20;99.90;;;;;;5145580;28;20390;-71
2023/08/26 02:43:39;;;;;;;9.68;8.77;;;21.20;99.90;;;;;;5145936;28;20023;-73
2023/08/26 02:46:10;;;;;;;10.02;8.60;;;21.30;99.90;;;;;;5146108;28;20035;-73
2023/08/26 02:48:41;;;;;;;12.73;9.02;;;21.00;99.90;;;;;;5146694;28;20089;-72
2023/08/26 02:51:11;;;;;;;9.73;8.95;;;21.20;99.90;;;;;;5145164;28;20434;-72
2023/08/26 02:53:42;;;;;;;8.60;7.85;;;21.20;99.90;;;;;;5146244;28;20027;-71
2023/08/26 02:56:13;;;;;;;9.55;8.45;;;21.20;99.90;;;;;;5146187;28;20031;-73
2023/08/26 02:58:44;;;;;;;10.00;9.10;;;21.20;99.90;;;;;;5146073;28;20095;-71
2023/08/26 03:01:16;;;;;;;8.77;7.95;;;21.20;99.90;;;;;;5145984;28;20050;-72
2023/08/26 03:03:47;;;;;;;9.02;8.10;;;21.00;99.90;;;;;;5145983;28;20110;-71
2023/08/26 03:06:18;;;;;;;9.52;8.70;;;21.20;99.90;;;;;;5145959;28;20106;-71
2023/08/26 03:08:55;;;;;;;9.90;8.93;;;21.10;99.90;;;;;;5145883;28;20081;-71
2023/08/26 03:11:32;;;;;;;9.52;8.55;;;21.20;99.90;;;;;;5144741;28;20030;-71
2023/08/26 03:14:03;;;;;;;8.70;7.95;;;21.20;99.90;;;;;;5145919;28;20022;-71
2023/08/26 03:16:34;;;;;;;9.73;8.73;;;21.10;99.90;;;;;;5145832;28;20085;-71
2023/08/26 03:19:05;;;;;;;9.30;8.52;;;21.10;99.90;;;;;;5145825;28;20109;-72
2023/08/26 03:21:36;;;;;;;9.60;8.80;;;21.00;99.90;;;;;;5145734;28;20027;-72
2023/08/26 03:24:07;;;;;;;9.45;8.65;;;21.10;99.90;;;;;;5145723;28;20086;-71
2023/08/26 03:26:38;;;;;;;8.80;8.10;;;21.20;99.90;;;;;;5145566;28;20030;-71
2023/08/26 03:29:09;;;;;;;8.90;8.00;;;21.10;99.90;;;;;;5145457;28;20035;-71
2023/08/26 03:31:42;;;;;;;9.23;8.52;;;21.10;99.90;;;;;;5145534;28;20487;-73
2023/08/26 03:34:13;;;;;;;10.43;8.68;;;21.30;99.90;;;;;;5145447;28;20046;-72
2023/08/26 03:36:44;;;;;;;10.48;8.18;;;21.10;99.90;;;;;;5143519;28;20033;-71
2023/08/26 03:39:15;;;;;;;10.50;8.88;;;21.10;99.90;;;;;;5143913;28;20033;-72
2023/08/26 03:41:46;;;;;;;8.10;7.20;;;21.30;99.90;;;;;;5143690;28;20094;-73
2023/08/26 03:44:17;;;;;;;10.18;8.05;;;21.10;99.90;;;;;;5143625;28;20035;-71
2023/08/26 03:46:48;;;;;;;9.13;7.78;;;21.20;99.90;;;;;;5143979;28;20521;-72
2023/08/26 03:49:19;;;;;;;8.77;7.38;;;21.20;99.90;;;;;;5143947;28;20538;-72
2023/08/26 03:51:51;;;;;;;13.85;8.13;;;21.30;99.90;;;;;;5144004;28;20031;-74
2023/08/26 03:54:22;;;;;;;8.50;7.72;;;21.10;99.90;;;;;;5144803;28;20027;-71
2023/08/26 03:56:53;;;;;;;7.97;7.28;;;21.30;99.90;;;;;;5145097;28;20519;-71
2023/08/26 03:59:24;;;;;;;9.35;8.45;;;21.40;99.90;;;;;;5145252;28;20038;-72
2023/08/26 04:01:55;;;;;;;9.77;7.72;;;21.40;99.90;;;;;;5145364;28;20039;-72
2023/08/26 04:04:26;;;;;;;8.00;7.20;;;21.40;99.90;;;;;;5145726;28;20078;-72
2023/08/26 04:06:57;;;;;;;11.98;6.65;;;21.50;99.90;;;;;;5145183;28;20379;-71
2023/08/26 04:09:28;;;;;;;11.30;7.55;;;21.50;99.90;;;;;;5145217;28;20101;-71
2023/08/26 04:11:59;;;;;;;8.68;6.45;;;21.70;99.90;;;;;;5145125;28;20022;-71
2023/08/26 04:14:30;;;;;;;9.23;7.00;;;21.80;99.90;;;;;;5143985;28;20041;-73
2023/08/26 04:17:03;;;;;;;8.65;7.22;;;21.90;99.90;;;;;;5145036;28;20026;-72
2023/08/26 04:19:34;;;;;;;12.15;10.10;;;22.00;99.90;;;;;;5145200;28;20054;-71
2023/08/26 04:22:07;;;;;;;13.02;10.95;;;22.00;99.90;;;;;;5145207;28;20027;-73
2023/08/26 04:24:38;;;;;;;14.93;12.98;;;22.10;99.90;;;;;;5145061;28;20084;-72
2023/08/26 04:27:08;;;;;;;15.52;14.30;;;22.30;99.90;;;;;;5144967;28;20031;-71
2023/08/26 04:29:39;;;;;;;17.95;15.10;;;22.40;99.90;;;;;;5144769;28;20047;-72
2023/08/26 04:32:11;;;;;;;13.82;12.32;;;22.50;99.90;;;;;;5144229;28;20035;-72
2023/08/26 04:34:41;;;;;;;12.80;11.63;;;22.60;99.90;;;;;;5144755;28;20039;-71
2023/08/26 04:37:12;;;;;;;13.02;10.98;;;22.70;99.90;;;;;;5142265;28;20026;-72
2023/08/26 04:39:43;;;;;;;12.15;10.85;;;22.80;99.90;;;;;;5143324;28;20053;-71
2023/08/26 04:42:14;;;;;;;13.48;10.43;;;23.10;99.90;;;;;;5142091;28;20118;-71
2023/08/26 04:44:45;;;;;;;15.73;9.43;;;23.20;99.90;;;;;;5143431;28;20038;-73
2023/08/26 04:47:16;;;;;;;11.63;9.25;;;23.30;99.90;;;;;;5143364;28;20026;-73
2023/08/26 04:49:47;;;;;;;10.18;9.05;;;23.40;99.90;;;;;;5143220;28;20105;-73
2023/08/26 04:52:18;;;;;;;9.82;7.90;;;23.60;99.90;;;;;;5144068;28;20019;-73
2023/08/26 04:54:49;;;;;;;15.13;8.93;;;23.70;99.90;;;;;;5146520;28;20035;-72
2023/08/26 04:57:20;;;;;;;19.77;8.43;;;23.70;99.90;;;;;;5147571;28;20033;-74
2023/08/26 04:59:51;;;;;;;24.15;8.63;;;23.70;99.90;;;;;;5146833;28;20031;-72
2023/08/26 05:02:22;;;;;;;17.77;8.63;;;23.90;99.90;;;;;;5147963;28;20375;-72
2023/08/26 05:04:53;;;;;;;14.98;8.10;;;24.10;99.90;;;;;;5147946;28;20035;-72
2023/08/26 05:07:24;;;;;;;12.18;7.45;;;24.20;99.90;;;;;;5148299;28;20050;-73
2023/08/26 05:09:55;;;;;;;13.07;7.20;;;24.40;99.90;;;;;;5148029;28;20039;-72
2023/08/26 05:12:26;;;;;;;11.05;7.82;;;24.50;99.90;;;;;;5147336;28;20035;-72
2023/08/26 05:14:57;;;;;;;11.95;7.05;;;24.60;99.90;;;;;;5147331;28;20038;-71
2023/08/26 05:17:28;;;;;;;10.82;7.75;;;24.70;99.90;;;;;;5146973;28;20031;-72
2023/08/26 05:19:58;;;;;;;12.45;7.63;;;24.80;99.90;;;;;;5146508;28;20467;-71
2023/08/26 05:22:29;;;;;;;9.77;8.13;;;25.00;99.90;;;;;;5146728;28;20674;-71
2023/08/26 05:25:00;;;;;;;15.88;8.05;;;25.00;99.90;;;;;;5146787;28;20429;-72
2023/08/26 05:27:31;;;;;;;10.35;7.22;;;25.20;99.90;;;;;;5147935;28;20027;-72
2023/08/26 05:30:03;;;;;;;11.30;6.20;;;25.30;99.90;;;;;;5146784;28;20043;-72
2023/08/26 05:32:35;;;;;;;10.27;6.30;;;25.40;99.90;;;;;;5146111;28;20738;-72
2023/08/26 05:35:06;;;;;;;10.07;6.32;;;25.50;99.90;;;;;;5146215;28;20478;-72
2023/08/26 05:37:38;;;;;;;12.70;7.28;;;25.70;99.90;;;;;;5146403;28;20027;-71
2023/08/26 05:40:09;;;;;;;10.55;7.28;;;25.70;99.90;;;;;;5146340;28;20023;-72
2023/08/26 05:42:41;;;;;;;6.90;6.15;;;25.90;99.90;;;;;;5147639;28;20031;-72
2023/08/26 05:45:12;;;;;;;11.75;7.03;;;25.90;99.90;;;;;;5146679;28;20042;-72
2023/08/26 05:47:43;;;;;;;12.68;7.07;;;26.00;99.90;;;;;;5146184;28;20027;-72
2023/08/26 05:50:14;;;;;;;7.82;6.30;;;26.10;99.90;;;;;;5147323;28;20038;-73
2023/08/26 05:52:45;;;;;;;10.05;6.88;;;26.30;99.90;;;;;;5147449;28;20110;-72
2023/08/26 05:55:16;;;;;;;12.07;6.85;;;26.20;99.90;;;;;;5147374;28;20038;-72
2023/08/26 05:57:47;;;;;;;8.48;7.68;;;26.40;99.90;;;;;;5147914;28;20053;-71
2023/08/26 06:00:18;;;;;;;10.05;9.10;;;26.40;99.90;;;;;;5593920;23;20464;-71
2023/08/26 06:02:49;;;;;;;11.52;8.52;;;26.60;99.90;;;;;;5150838;28;20094;-71
2023/08/26 06:05:22;;;;;;;12.05;9.88;;;26.60;99.90;;;;;;5144763;28;20039;-73
2023/08/26 06:07:53;;;;;;;16.48;8.43;;;26.70;99.90;;;;;;5146725;28;20015;-73
2023/08/26 06:10:24;;;;;;;13.73;7.78;;;26.80;99.90;;;;;;5146029;28;20977;-74
2023/08/26 06:12:54;;;;;;;15.48;8.38;;;26.70;99.90;;;;;;5156726;28;20026;-72
2023/08/26 06:15:25;;;;;;;11.57;8.85;;;26.70;99.90;;;;;;5145133;28;20065;-72
2023/08/26 06:17:56;;;;;;;10.25;7.95;;;26.80;99.90;;;;;;5145341;28;20030;-72
2023/08/26 06:20:29;;;;;;;12.27;7.65;;;27.00;99.90;;;;;;5146226;28;20026;-71
2023/08/26 06:23:00;;;;;;;9.35;7.25;;;27.10;99.90;;;;;;5145511;28;20026;-72
2023/08/26 06:25:31;;;;;;;10.13;6.80;;;27.00;99.90;;;;;;5145579;28;20399;-71
2023/08/26 06:28:02;;;;;;;13.77;6.38;;;27.20;99.90;;;;;;5146345;28;20034;-72
2023/08/26 06:30:32;;;;;;;10.38;7.28;;;27.20;99.90;;;;;;5146610;28;20047;-72
2023/08/26 06:33:04;;;;;;;8.60;7.75;;;27.30;99.90;;;;;;5146523;28;20019;-72
2023/08/26 06:35:34;;;;;;;9.48;8.10;;;27.40;99.90;;;;;;5146433;28;20031;-72
2023/08/26 06:38:06;;;;;;;9.23;7.38;;;27.40;99.90;;;;;;5145539;28;20130;-73
2023/08/26 06:40:37;;;;;;;10.40;6.85;;;27.50;99.90;;;;;;5146534;28;20030;-72
2023/08/26 06:43:08;;;;;;;9.77;6.60;;;27.50;99.90;;;;;;5146565;28;20019;-73
2023/08/26 06:45:39;;;;;;;9.73;8.82;;;27.60;99.90;;;;;;5146371;28;20054;-72
2023/08/26 06:48:10;;;;;;;17.67;11.13;;;27.70;99.90;;;;;;5146510;28;20066;-73
2023/08/26 06:50:41;;;;;;;18.00;10.60;;;27.60;99.90;;;;;;5145243;28;20031;-71
2023/08/26 06:53:19;;;;;;;13.50;12.35;;;27.70;99.90;;;;;;5146204;28;20034;-72
2023/08/26 06:55:52;;;;;;;13.43;10.93;;;27.80;99.90;;;;;;5146268;28;20026;-72
2023/08/26 06:58:29;;;;;;;13.00;11.88;;;27.80;99.90;;;;;;5145792;28;20050;-72
2023/08/26 07:01:03;;;;;;;12.80;11.48;;;27.90;99.90;;;;;;5145242;28;20607;-72
2023/08/26 07:03:38;;;;;;;12.20;10.90;;;28.00;99.90;;;;;;5145662;28;20101;-71
2023/08/26 07:06:11;;;;;;;11.95;10.75;;;28.20;99.90;;;;;;5145656;28;20027;-73
2023/08/26 07:08:45;;;;;;;11.77;8.82;;;28.20;99.90;;;;;;5145111;28;20035;-71
2023/08/26 07:11:19;;;;;;;10.55;8.88;;;28.20;99.90;;;;;;5144296;28;20089;-72
2023/08/26 07:13:50;;;;;;;10.13;8.07;;;28.40;99.90;;;;;;5145758;28;20054;-74
2023/08/26 07:16:21;;;;;;;9.38;6.70;;;28.30;99.90;;;;;;5145694;28;20054;-72
2023/08/26 07:18:57;;;;;;;11.68;6.65;;;28.40;99.90;;;;;;5145859;28;20045;-72
2023/08/26 07:21:31;;;;;;;8.77;6.25;;;28.50;99.90;;;;;;5145771;28;20430;-72
2023/08/26 07:24:03;;;;;;;11.90;6.80;;;28.50;99.90;;;;;;5145624;28;20015;-72
2023/08/26 07:26:34;;;;;;;11.95;6.45;;;28.50;99.90;;;;;;5145599;28;20066;-73
2023/08/26 07:29:05;;;;;;;8.70;6.85;;;28.50;99.90;;;;;;5144606;28;20407;-73
2023/08/26 07:31:36;;;;;;;8.77;6.90;;;28.80;99.90;;;;;;5144984;28;20114;-73
2023/08/26 07:34:07;;;;;;;8.43;7.13;;;28.80;99.90;;;;;;5144122;28;20097;-72
2023/08/26 07:36:38;;;;;;;9.27;6.93;;;28.90;99.90;;;;;;5143989;28;20029;-75
2023/08/26 07:39:09;;;;;;;10.90;7.25;;;28.80;99.90;;;;;;5142946;28;20494;-73
2023/08/26 07:41:40;;;;;;;14.40;7.80;;;29.00;99.90;;;;;;5144366;28;20029;-74
2023/08/26 07:44:11;;;;;;;10.10;6.22;;;29.00;99.90;;;;;;5144427;28;20134;-72
2023/08/26 07:46:42;;;;;;;10.57;6.82;;;29.00;99.90;;;;;;5145152;28;20118;-72
2023/08/26 07:49:12;;;;;;;12.32;6.40;;;29.10;99.90;;;;;;5145182;28;20114;-73
2023/08/26 07:51:43;;;;;;;8.10;6.38;;;29.20;99.90;;;;;;5145177;28;20467;-73
2023/08/26 07:54:14;;;;;;;15.02;5.90;;;29.30;99.90;;;;;;5145188;28;20463;-74
2023/08/26 07:56:45;;;;;;;9.13;6.18;;;29.30;99.90;;;;;;5145122;28;20026;-72
2023/08/26 07:59:16;;;;;;;8.18;6.47;;;29.30;99.90;;;;;;5143791;28;20085;-73
2023/08/26 08:01:47;;;;;;;9.60;6.10;;;29.20;99.90;;;;;;5144869;28;20043;-74
2023/08/26 08:04:18;;;;;;;12.80;5.38;;;29.40;99.90;;;;;;5145119;28;20026;-72
2023/08/26 08:06:49;;;;;;;8.40;5.35;;;29.30;99.90;;;;;;5145038;28;20098;-74
2023/08/26 08:09:20;;;;;;;8.88;5.70;;;29.30;99.90;;;;;;5144970;28;20051;-73
2023/08/26 08:11:51;;;;;;;11.50;5.38;;;29.40;99.90;;;;;;5143772;28;20023;-72
2023/08/26 08:14:22;;;;;;;8.38;4.82;;;29.50;99.90;;;;;;5144887;28;20097;-72
2023/08/26 08:16:53;;;;;;;8.90;5.45;;;29.50;99.90;;;;;;5143588;28;20023;-73
2023/08/26 08:19:25;;;;;;;8.40;5.07;;;29.50;99.90;;;;;;5145021;28;20035;-72
2023/08/26 08:21:55;;;;;;;6.78;5.40;;;29.60;99.90;;;;;;5144849;28;20021;-75
2023/08/26 08:24:26;;;;;;;18.70;6.10;;;29.60;99.90;;;;;;5144575;28;20027;-77
2023/08/26 08:26:57;;;;;;;8.43;5.75;;;29.60;99.90;;;;;;5144757;28;20019;-75
2023/08/26 08:29:28;;;;;;;7.63;5.20;;;29.60;99.90;;;;;;5143882;28;20035;-73
2023/08/26 08:31:59;;;;;;;13.07;6.00;;;29.70;99.90;;;;;;5147528;28;20022;-74
2023/08/26 08:34:30;;;;;;;22.48;6.38;;;29.70;99.90;;;;;;5147466;28;20038;-76
2023/08/26 08:37:01;;;;;;;9.60;5.15;;;29.70;99.90;;;;;;5146132;28;20110;-72
2023/08/26 08:39:32;;;;;;;7.57;5.10;;;29.90;99.90;;;;;;5147458;28;20035;-74
2023/08/26 08:42:06;;;;;;;10.25;4.88;;;29.90;99.90;;;;;;5147290;28;20023;-73
2023/08/26 08:44:42;;;;;;;7.05;5.03;;;29.80;99.90;;;;;;5148673;28;20027;-74
2023/08/26 08:47:13;;;;;;;7.93;5.47;;;30.00;99.90;;;;;;5148836;28;20062;-75
2023/08/26 08:49:44;;;;;;;5.97;5.00;;;30.00;99.90;;;;;;5147408;28;20044;-71
2023/08/26 08:52:15;;;;;;;9.65;5.15;;;29.90;99.90;;;;;;5148711;28;20030;-72
2023/08/26 08:54:47;;;;;;;9.57;5.28;;;29.90;99.90;;;;;;5147599;28;20534;-71
2023/08/26 08:57:23;;;;;;;10.43;5.35;;;30.10;99.90;;;;;;5147545;28;20022;-72
2023/08/26 08:59:57;;;;;;;8.85;4.80;;;30.00;99.90;;;;;;5148340;28;20043;-77
2023/08/26 09:02:28;;;;;;;11.10;5.28;;;30.20;99.90;;;;;;5148629;28;20034;-73
2023/08/26 09:04:59;;;;;;;9.15;5.28;;;30.20;99.90;;;;;;5148378;28;20415;-72
2023/08/26 09:07:32;;;;;;;12.13;5.10;;;30.40;99.90;;;;;;5145932;28;20499;-72
2023/08/26 09:10:05;;;;;;;10.82;5.03;;;30.40;99.90;;;;;;5146165;28;20051;-72
2023/08/26 09:12:36;;;;;;;13.10;4.78;;;30.30;99.90;;;;;;5146214;28;20082;-76
2023/08/26 09:15:08;;;;;;;16.10;4.88;;;30.10;99.90;;;;;;5145905;28;20089;-77
2023/08/26 09:17:44;;;;;;;6.57;4.75;;;30.20;99.90;;;;;;5145887;28;20487;-75
2023/08/26 09:20:15;;;;;;;6.38;4.32;;;30.30;99.90;;;;;;5128731;28;20562;-76
2023/08/26 09:22:46;;;;;;;9.77;4.85;;;30.40;99.90;;;;;;5145364;28;20118;-77
2023/08/26 09:25:17;;;;;;;7.75;4.25;;;30.30;99.90;;;;;;5143758;28;20117;-76
2023/08/26 09:27:48;;;;;;;6.90;4.63;;;30.40;99.90;;;;;;5143708;28;20538;-77
2023/08/26 09:30:20;;;;;;;9.05;4.85;;;30.50;99.90;;;;;;5143511;28;20043;-77
2023/08/26 09:32:52;;;;;;;10.65;4.25;;;30.30;99.90;;;;;;5143592;28;20035;-79
2023/08/26 09:35:23;;;;;;;17.42;5.25;;;30.20;99.90;;;;;;5143321;28;20122;-73
2023/08/26 09:37:58;;;;;;;14.93;4.72;;;30.40;99.90;;;;;;5144093;28;20453;-76
2023/08/26 09:40:30;;;;;;;21.88;5.10;;;30.50;99.90;;;;;;5146246;28;20031;-78
2023/08/26 09:43:06;;;;;;;7.95;4.50;;;30.40;99.90;;;;;;5147588;28;20030;-77
2023/08/26 09:45:38;;;;;;;11.75;4.45;;;30.50;99.90;;;;;;5146372;28;20063;-73
2023/08/26 09:48:09;;;;;;;6.60;4.40;;;30.40;99.90;;;;;;5130966;28;20565;-75
2023/08/26 09:50:39;;;;;;;10.18;4.50;;;30.30;99.90;;;;;;5140155;28;20035;-75
2023/08/26 09:53:11;;;;;;;7.35;4.82;;;30.30;99.90;;;;;;5127479;29;20027;-78
2023/08/26 09:55:43;;;;;;;7.63;4.70;;;30.40;99.90;;;;;;5127413;29;20039;-78
2023/08/26 09:58:15;;;;;;;10.65;4.65;;;30.40;99.90;;;;;;5127233;28;20053;-76
2023/08/26 10:00:48;;;;;;;7.05;4.40;;;30.40;99.90;;;;;;5128696;28;20061;-73
2023/08/26 10:03:22;;;;;;;36.22;5.68;;;30.60;99.90;;;;;;5144068;28;20157;-76
2023/08/26 10:05:57;;;;;;;32.70;5.43;;;30.60;99.90;;;;;;5145360;28;20033;-77
2023/08/26 10:08:32;;;;;;;8.73;4.78;;;30.70;99.90;;;;;;5145131;28;20039;-73
2023/08/26 10:11:07;;;;;;;6.80;4.55;;;30.80;99.90;;;;;;5146500;28;20072;-73
2023/08/26 10:13:40;;;;;;;10.40;4.95;;;30.90;99.90;;;;;;5146839;28;20019;-74
2023/08/26 10:16:14;;;;;;;10.88;4.90;;;30.90;99.90;;;;;;5145068;28;20041;-76
2023/08/26 10:18:56;;;;;;;11.32;4.68;;;30.70;99.90;;;;;;5145320;28;20399;-73
2023/08/26 10:21:27;;;;;;;11.50;4.97;;;30.80;99.90;;;;;;5144031;28;20023;-75
2023/08/26 10:23:58;;;;;;;10.27;4.78;;;31.00;99.90;;;;;;5143986;28;20069;-73
2023/08/26 10:26:29;;;;;;;10.27;4.57;;;31.00;99.90;;;;;;5145096;28;20026;-73
2023/08/26 10:29:00;;;;;;;13.10;4.85;;;30.90;99.90;;;;;;5176019;28;20097;-76
2023/08/26 10:31:36;;;;;;;10.25;5.32;;;30.80;99.90;;;;;;5143804;28;20096;-72
2023/08/26 10:34:07;;;;;;;6.78;4.38;;;31.00;99.90;;;;;;5145008;28;20162;-74
2023/08/26 10:36:40;;;;;;;12.75;8.38;;;31.10;99.90;;;;;;5146447;28;20113;-74
2023/08/26 10:39:20;;;;;;;9.98;4.47;;;31.10;99.90;;;;;;5146693;28;20031;-74
2023/08/26 10:42:18;;;;;;;9.27;4.53;;;30.90;99.90;;;;;;5177548;28;20031;-76
2023/08/26 10:44:55;;;;;;;14.70;5.50;;;31.00;99.90;;;;;;5146473;28;20592;-74
2023/08/26 10:47:46;;;;;;;8.45;5.03;;;31.10;99.90;;;;;;5146381;28;20030;-72
2023/08/26 10:50:25;;;;;;;17.48;8.77;;;31.20;99.90;;;;;;5146158;28;20042;-76
2023/08/26 10:52:58;;;;;;;8.85;4.38;;;31.10;99.90;;;;;;5145879;28;20050;-73
2023/08/26 10:55:32;;;;;;;9.55;5.45;;;31.20;99.90;;;;;;5146044;28;20019;-72
2023/08/26 10:58:17;;;;;;;11.25;4.57;;;31.30;99.90;;;;;;5146004;28;20038;-75
2023/08/26 11:00:52;;;;;;;13.18;6.47;;;31.10;99.90;;;;;;5142655;28;20082;-73
2023/08/26 11:03:23;;;;;;;14.82;7.72;;;31.10;99.90;;;;;;5140799;28;20018;-71
2023/08/26 11:06:05;;;;;;;8.73;5.10;;;31.10;99.90;;;;;;5144136;28;20375;-73
2023/08/26 11:08:38;;;;;;;10.02;5.05;;;31.10;99.90;;;;;;5145237;28;20039;-72
2023/08/26 11:11:12;;;;;;;7.38;5.15;;;31.10;99.90;;;;;;5145688;28;20089;-74
2023/08/26 11:13:45;;;;;;;14.38;5.32;;;31.30;99.90;;;;;;5142989;28;20074;-74
2023/08/26 11:16:16;;;;;;;17.27;5.65;;;31.00;99.90;;;;;;5144779;28;20058;-73
2023/08/26 11:18:50;;;;;;;11.10;5.20;;;31.20;99.90;;;;;;5175617;28;20025;-72
2023/08/26 11:21:22;;;;;;;8.80;5.13;;;31.00;99.90;;;;;;5144485;28;20491;-75
2023/08/26 11:23:55;;;;;;;7.45;5.00;;;31.00;99.90;;;;;;5143012;28;20026;-77
2023/08/26 11:26:27;;;;;;;10.45;5.13;;;31.00;99.90;;;;;;5142660;28;20085;-74
2023/08/26 11:29:02;;;;;;;9.57;5.25;;;31.30;99.90;;;;;;5142091;28;20499;-73
2023/08/26 11:31:33;;;;;;;8.10;4.80;;;31.30;99.90;;;;;;5144835;28;20034;-74
2023/08/26 11:34:04;;;;;;;6.28;4.57;;;31.30;99.90;;;;;;5143456;28;20074;-74
2023/08/26 11:36:35;;;;;;;12.88;4.97;;;31.20;99.90;;;;;;5143353;28;20454;-75
2023/08/26 11:39:16;;;;;;;6.57;4.43;;;31.50;99.90;;;;;;5145103;28;20094;-74
2023/08/26 11:41:49;;;;;;;6.50;4.70;;;31.30;99.90;;;;;;5145496;28;20431;-73
2023/08/26 11:44:20;;;;;;;8.25;5.15;;;31.50;99.90;;;;;;5143742;28;20039;-75
2023/08/26 11:46:53;;;;;;;8.32;5.03;;;31.40;99.90;;;;;;5144160;28;20034;-74
2023/08/26 11:49:24;;;;;;;9.73;4.82;;;31.30;99.90;;;;;;5143444;28;20113;-74
2023/08/26 11:51:55;;;;;;;11.25;5.47;;;31.20;99.90;;;;;;5143097;28;20035;-74
2023/08/26 11:54:26;;;;;;;9.65;5.75;;;31.30;99.90;;;;;;5142960;28;20033;-73
2023/08/26 11:56:58;;;;;;;12.52;5.60;;;31.30;99.90;;;;;;5142950;28;20142;-74
2023/08/26 11:59:43;;;;;;;11.13;5.40;;;31.60;99.90;;;;;;5143001;28;20058;-75
2023/08/26 12:02:22;;;;;;;8.30;5.57;;;31.50;99.90;;;;;;5143742;28;20487;-75
2023/08/26 12:04:57;;;;;;;11.00;5.50;;;31.40;99.90;;;;;;5143977;28;20035;-75
2023/08/26 12:07:31;;;;;;;13.00;6.03;;;31.40;99.90;;;;;;5176313;28;20037;-76
2023/08/26 12:10:11;;;;;;;13.30;6.00;;;31.50;99.90;;;;;;5143699;28;20042;-78
2023/08/26 12:12:42;;;;;;;21.50;6.05;;;31.30;99.90;;;;;;5145441;28;20023;-77
2023/08/26 12:15:22;;;;;;;13.23;6.15;;;31.40;99.90;;;;;;5143271;28;20376;-77
2023/08/26 12:17:56;;;;;;;6.40;5.78;;;31.30;99.90;;;;;;5144579;28;20050;-77
2023/08/26 12:20:28;;;;;;;9.75;5.40;;;31.30;99.90;;;;;;5144773;28;20019;-77
2023/08/26 12:23:02;;;;;;;7.88;5.68;;;31.10;99.90;;;;;;5144812;28;20035;-75
2023/08/26 12:25:45;;;;;;;8.40;5.40;;;31.20;99.90;;;;;;5141393;28;20031;-76
2023/08/26 12:28:28;;;;;;;13.05;5.55;;;31.20;99.90;;;;;;5143352;28;20022;-77
2023/08/26 12:31:04;;;;;;;9.73;5.63;;;31.10;99.90;;;;;;5144376;28;20030;-75
2023/08/26 12:33:35;;;;;;;11.13;5.88;;;31.30;99.90;;;;;;5143106;28;20038;-74
2023/08/26 12:36:06;;;;;;;12.88;5.60;;;31.40;99.90;;;;;;5138982;28;20088;-77
2023/08/26 12:38:37;;;;;;;9.20;5.38;;;31.30;99.90;;;;;;5124417;28;20027;-74
2023/08/26 12:41:08;;;;;;;11.27;6.00;;;31.30;99.90;;;;;;5123655;28;20042;-77
2023/08/26 12:43:38;;;;;;;9.00;5.22;;;31.40;99.90;;;;;;5123151;28;20369;-77
2023/08/26 12:46:09;;;;;;;9.02;5.00;;;31.30;99.90;;;;;;5123278;28;20027;-76
2023/08/26 12:48:40;;;;;;;7.25;4.93;;;31.20;99.90;;;;;;5123285;28;20036;-76
2023/08/26 12:51:11;;;;;;;10.07;5.63;;;31.10;99.90;;;;;;5147950;28;20538;-74
2023/08/26 12:53:43;;;;;;;6.07;5.38;;;31.10;99.90;;;;;;5143080;28;20031;-76
2023/08/26 12:56:15;;;;;;;7.03;5.38;;;31.10;99.90;;;;;;5143667;28;20026;-77
2023/08/26 12:58:48;;;;;;;7.07;5.30;;;30.90;99.90;;;;;;5144282;28;20049;-77
2023/08/26 13:01:19;;;;;;;9.75;5.40;;;31.00;99.90;;;;;;5144201;28;20050;-76
2023/08/26 13:03:50;;;;;;;6.82;5.45;;;31.30;99.90;;;;;;5159516;28;20050;-76
2023/08/26 13:06:21;;;;;;;6.85;5.32;;;31.40;99.90;;;;;;5143127;28;20073;-78
2023/08/26 13:08:51;;;;;;;35.75;6.97;;;31.10;99.90;;;;;;5144375;28;20038;-77